Time;durP1;ratioP1;P1;durP2;ratioP2;P2;SDS_P1;SDS_P2;PMS_P1;PMS_P2;Temp;Humidity;BMP_temperature;BMP_pressure;BME280_temperature;BME280_humidity;BME280_pressure;Samples;Min_cycle;Max_cycle;Signal;HPM_P1;HPM_P2
2021/07/23 00:00:51;;;;;;;;;;;;;;;;;;2108126;28;917;-74
2021/07/23 00:01:52;;;;;;;;;;;;;;;;;;2108081;28;835;-74
2021/07/23 00:02:54;;;;;;;;;;;;;;;;;;2108418;28;859;-74
2021/07/23 00:03:55;;;;;;;;;;;;;;;;;;2108131;28;838;-73
2021/07/23 00:04:57;;;;;;;;;;;;;;;;;;2108143;28;850;-74
2021/07/23 00:05:59;;;;;;;;;;;;;;;;;;2107403;28;921;-74
2021/07/23 00:07:00;;;;;;;;;;;;;;;;;;2107579;28;933;-75
2021/07/23 00:08:01;;;;;;;;;;;;;;;;;;2108314;28;774;-74
2021/07/23 00:09:03;;;;;;;;;;;;;;;;;;2107471;28;1475;-74
2021/07/23 00:10:04;;;;;;;;;;;;;;;;;;2107560;28;1984;-75
2021/07/23 00:11:07;;;;;;;;;;;;;;;;;;2107521;28;879;-73
2021/07/23 00:12:08;;;;;;;;;;;;;;;;;;2107539;28;822;-76
2021/07/23 00:13:10;;;;;;;;;;;;;;;;;;2108119;28;902;-77
2021/07/23 00:14:11;;;;;;;;;;;;;;;;;;2108101;28;782;-78
2021/07/23 00:15:12;;;;;;;;;;;;;;;;;;2108068;28;779;-76
2021/07/23 00:16:13;;;;;;;;;;;;;;;;;;2108104;28;925;-75
2021/07/23 00:17:15;;;;;;;;;;;;;;;;;;2108206;28;905;-74
2021/07/23 00:18:16;;;;;;;;;;;;;;;;;;2108237;28;849;-76
2021/07/23 00:19:18;;;;;;;;;;;;;;;;;;2108174;28;925;-76
2021/07/23 00:20:19;;;;;;;;;;;;;;;;;;2108101;28;929;-77
2021/07/23 00:21:21;;;;;;;;;;;;;;;;;;2108295;28;894;-77
2021/07/23 00:22:22;;;;;;;;;;;;;;;;;;2108049;28;921;-76
2021/07/23 00:23:23;;;;;;;;;;;;;;;;;;2108180;28;893;-77
2021/07/23 00:24:24;;;;;;;;;;;;;;;;;;2108105;28;846;-75
2021/07/23 00:25:26;;;;;;;;;;;;;;;;;;2108274;28;872;-75
2021/07/23 00:26:28;;;;;;;;;;;;;;;;;;2107324;28;1554;-77
2021/07/23 00:27:30;;;;;;;;;;;;;;;;;;2107468;28;821;-76
2021/07/23 00:28:31;;;;;;;;;;;;;;;;;;2107359;28;884;-77
2021/07/23 00:29:33;;;;;;;;;;;;;;;;;;2107448;28;773;-76
2021/07/23 00:30:34;;;;;;;;;;;;;;;;;;2107922;28;1972;-76
2021/07/23 00:31:36;;;;;;;;;;;;;;;;;;2107347;28;818;-77
2021/07/23 00:32:36;;;;;;;;;;;;;;;;;;2099197;28;1371;-77
2021/07/23 00:33:38;;;;;;;;;;;;;;;;;;2099367;28;1482;-75
2021/07/23 00:34:39;;;;;;;;;;;;;;;;;;2099084;28;1206;-76
2021/07/23 00:35:41;;;;;;;;;;;;;;;;;;2107993;28;866;-78
2021/07/23 00:36:41;;;;;;;;;;;;;;;;;;2109754;28;893;-76
2021/07/23 00:37:43;;;;;;;;;;;;;;;;;;2109668;28;873;-75
2021/07/23 00:38:44;;;;;;;;;;;;;;;;;;2109608;28;1031;-78
2021/07/23 00:39:46;;;;;;;;;;;;;;;;;;2109635;28;927;-76
2021/07/23 00:40:47;;;;;;;;;;;;;;;;;;2108936;28;1190;-77
2021/07/23 00:41:50;;;;;;;;;;;;;;;;;;2109385;28;920;-79
2021/07/23 00:42:52;;;;;;;;;;;;;;;;;;2108892;28;1178;-78
2021/07/23 00:43:54;;;;;;;;;;;;;;;;;;2109141;28;838;-76
2021/07/23 00:44:54;;;;;;;;;;;;;;;;;;2108838;28;1363;-76
2021/07/23 00:45:57;;;;;;;;;;;;;;;;;;2100556;28;1367;-74
2021/07/23 00:46:58;;;;;;;;;;;;;;;;;;2100680;28;1207;-78
2021/07/23 00:48:02;;;;;;;;;;;;;;;;;;2100816;28;1318;-75
2021/07/23 00:49:05;;;;;;;;;;;;;;;;;;2108693;28;1216;-78
2021/07/23 00:50:07;;;;;;;;;;;;;;;;;;2108929;28;794;-78
2021/07/23 00:51:09;;;;;;;;;;;;;;;;;;2108752;28;1966;-77
2021/07/23 00:52:11;;;;;;;;;;;;;;;;;;2100474;28;1356;-78
2021/07/23 00:53:12;;;;;;;;;;;;;;;;;;2100559;28;1410;-78
2021/07/23 00:54:14;;;;;;;;;;;;;;;;;;2100474;28;1549;-77
2021/07/23 00:55:17;;;;;;;;;;;;;;;;;;2108961;28;885;-78
2021/07/23 00:56:20;;;;;;;;;;;;;;;;;;2108934;28;1651;-75
2021/07/23 00:57:23;;;;;;;;;;;;;;;;;;2100495;28;1529;-78
2021/07/23 00:58:25;;;;;;;;;;;;;;;;;;2100622;28;1321;-74
2021/07/23 00:59:26;;;;;;;;;;;;;;;;;;2100587;28;1317;-78
2021/07/23 01:00:29;;;;;;;;;;;;;;;;;;2100527;28;1402;-78
2021/07/23 01:01:33;;;;;;;;;;;;;;;;;;2108790;28;1313;-78
2021/07/23 01:02:35;;;;;;;;;;;;;;;;;;2109150;28;861;-75
2021/07/23 01:03:37;;;;;;;;;;;;;;;;;;2108758;28;1405;-74
2021/07/23 01:04:42;;;;;;;;;;;;;;;;;;2100531;28;1242;-73
2021/07/23 01:05:43;;;;;;;;;;;;;;;;;;2108823;28;786;-73
2021/07/23 01:06:45;;;;;;;;;;;;;;;;;;2109415;28;786;-73
2021/07/23 01:07:46;;;;;;;;;;;;;;;;;;2108636;28;1309;-74
2021/07/23 01:08:47;;;;;;;;;;;;;;;;;;2108902;28;838;-75
2021/07/23 01:09:50;;;;;;;;;;;;;;;;;;2109373;28;781;-75
2021/07/23 01:11:18;;;;;;;;;;;;;;;;;;2093060;28;1898;-75
2021/07/23 01:12:50;;;;;;;;;;;;;;;;;;2100124;28;1323;-74
2021/07/23 01:13:52;;;;;;;;;;;;;;;;;;2108605;28;1296;-76
2021/07/23 01:14:54;;;;;;;;;;;;;;;;;;2100412;28;1251;-75
2021/07/23 01:15:56;;;;;;;;;;;;;;;;;;2108797;28;870;-75
2021/07/23 01:16:58;;;;;;;;;;;;;;;;;;2109342;28;983;-75
2021/07/23 01:18:01;;;;;;;;;;;;;;;;;;2109547;28;813;-75
2021/07/23 01:19:02;;;;;;;;;;;;;;;;;;2108597;28;1515;-78
2021/07/23 01:20:06;;;;;;;;;;;;;;;;;;2108692;28;866;-74
2021/07/23 01:21:07;;;;;;;;;;;;;;;;;;2109301;28;869;-74
2021/07/23 01:22:10;;;;;;;;;;;;;;;;;;2108634;28;1221;-76
2021/07/23 01:23:12;;;;;;;;;;;;;;;;;;2100351;28;1171;-75
2021/07/23 01:24:17;;;;;;;;;;;;;;;;;;2100490;28;1169;-74
2021/07/23 01:25:23;;;;;;;;;;;;;;;;;;2108753;28;854;-73
2021/07/23 01:26:25;;;;;;;;;;;;;;;;;;2108520;28;1311;-74
2021/07/23 01:27:26;;;;;;;;;;;;;;;;;;2100268;28;1017;-73
2021/07/23 01:28:36;;;;;;;;;;;;;;;;;;2101179;28;1286;-73
2021/07/23 01:29:40;;;;;;;;;;;;;;;;;;2100866;28;1333;-73
2021/07/23 01:30:43;;;;;;;;;;;;;;;;;;2108563;28;1914;-73
2021/07/23 01:31:51;;;;;;;;;;;;;;;;;;2101471;28;1682;-73
2021/07/23 01:32:53;;;;;;;;;;;;;;;;;;2108614;28;826;-73
2021/07/23 01:33:55;;;;;;;;;;;;;;;;;;2108637;28;1497;-74
2021/07/23 01:34:58;;;;;;;;;;;;;;;;;;2100331;28;1183;-73
2021/07/23 01:35:59;;;;;;;;;;;;;;;;;;2100131;28;1204;-73
2021/07/23 01:37:01;;;;;;;;;;;;;;;;;;2108547;28;871;-74
2021/07/23 01:38:02;;;;;;;;;;;;;;;;;;2109389;28;900;-73
2021/07/23 01:39:07;;;;;;;;;;;;;;;;;;2108430;28;1308;-73
2021/07/23 01:40:12;;;;;;;;;;;;;;;;;;2100497;28;1357;-74
2021/07/23 01:41:14;;;;;;;;;;;;;;;;;;2100252;28;1296;-74
2021/07/23 01:42:14;;;;;;;;;;;;;;;;;;2100387;28;1409;-73
2021/07/23 01:43:18;;;;;;;;;;;;;;;;;;2100254;28;1265;-74
2021/07/23 01:44:19;;;;;;;;;;;;;;;;;;2108508;28;905;-73
2021/07/23 01:45:21;;;;;;;;;;;;;;;;;;2109067;28;851;-74
2021/07/23 01:46:42;;;;;;;;;;;;;;;;;;2108805;28;1072;-73
2021/07/23 01:47:46;;;;;;;;;;;;;;;;;;2108491;28;1166;-73
2021/07/23 01:48:47;;;;;;;;;;;;;;;;;;2108347;28;1329;-73
2021/07/23 01:50:04;;;;;;;;;;;;;;;;;;2109228;28;810;-73
2021/07/23 01:51:06;;;;;;;;;;;;;;;;;;2108236;28;1968;-73
2021/07/23 01:52:08;;;;;;;;;;;;;;;;;;2108589;28;783;-75
2021/07/23 01:53:18;;;;;;;;;;;;;;;;;;2108394;28;1226;-73
2021/07/23 01:54:38;;;;;;;;;;;;;;;;;;2108626;28;842;-73
2021/07/23 01:55:43;;;;;;;;;;;;;;;;;;2108307;28;1492;-74
2021/07/23 01:56:45;;;;;;;;;;;;;;;;;;2100374;28;1223;-73
2021/07/23 01:57:49;;;;;;;;;;;;;;;;;;2100468;28;1311;-73
2021/07/23 01:58:51;;;;;;;;;;;;;;;;;;2099894;28;1356;-73
2021/07/23 01:59:54;;;;;;;;;;;;;;;;;;2108292;28;1301;-74
2021/07/23 02:00:57;;;;;;;;;;;;;;;;;;2105571;28;1771;-73
2021/07/23 02:02:02;;;;;;;;;;;;;;;;;;2101159;28;921;-73
2021/07/23 02:03:15;;;;;;;;;;;;;;;;;;2106901;28;823;-73
2021/07/23 02:04:17;;;;;;;;;;;;;;;;;;2100007;28;1293;-73
2021/07/23 02:05:19;;;;;;;;;;;;;;;;;;2100070;28;858;-73
2021/07/23 02:06:20;;;;;;;;;;;;;;;;;;2101821;28;915;-74
2021/07/23 02:07:23;;;;;;;;;;;;;;;;;;2108334;28;1027;-74
2021/07/23 02:08:24;;;;;;;;;;;;;;;;;;2116670;28;1303;-73
2021/07/23 02:09:26;;;;;;;;;;;;;;;;;;2125064;27;805;-73
2021/07/23 02:10:29;;;;;;;;;;;;;;;;;;2108203;28;1181;-73
2021/07/23 02:11:33;;;;;;;;;;;;;;;;;;2108169;28;1913;-73
2021/07/23 02:12:34;;;;;;;;;;;;;;;;;;2108224;28;1261;-73
2021/07/23 02:13:46;;;;;;;;;;;;;;;;;;2108658;28;1878;-74
2021/07/23 02:14:47;;;;;;;;;;;;;;;;;;2108331;28;938;-73
2021/07/23 02:15:50;;;;;;;;;;;;;;;;;;2108967;28;830;-74
2021/07/23 02:16:55;;;;;;;;;;;;;;;;;;2108240;28;1328;-74
2021/07/23 02:17:57;;;;;;;;;;;;;;;;;;2108194;28;1347;-78
2021/07/23 02:19:01;;;;;;;;;;;;;;;;;;2108139;28;1342;-76
2021/07/23 02:20:22;;;;;;;;;;;;;;;;;;2108468;28;928;-77
2021/07/23 02:21:23;;;;;;;;;;;;;;;;;;2108967;28;872;-78
2021/07/23 02:22:25;;;;;;;;;;;;;;;;;;2108807;28;846;-77
2021/07/23 02:23:26;;;;;;;;;;;;;;;;;;2108070;28;1351;-75
2021/07/23 02:24:28;;;;;;;;;;;;;;;;;;2108232;28;790;-77
2021/07/23 02:25:31;;;;;;;;;;;;;;;;;;2108168;28;1557;-78
2021/07/23 02:26:34;;;;;;;;;;;;;;;;;;2108135;28;1186;-77
2021/07/23 02:27:35;;;;;;;;;;;;;;;;;;2108090;28;850;-78
2021/07/23 02:28:39;;;;;;;;;;;;;;;;;;2116682;28;1330;-77
2021/07/23 02:29:40;;;;;;;;;;;;;;;;;;2124872;27;844;-75
2021/07/23 02:30:42;;;;;;;;;;;;;;;;;;2108765;28;781;-74
2021/07/23 02:32:07;;;;;;;;;;;;;;;;;;2108099;28;1211;-76
2021/07/23 02:33:08;;;;;;;;;;;;;;;;;;2108181;28;810;-77
2021/07/23 02:34:10;;;;;;;;;;;;;;;;;;2108122;28;1360;-76
2021/07/23 02:35:12;;;;;;;;;;;;;;;;;;2108025;28;2035;-78
2021/07/23 02:36:25;;;;;;;;;;;;;;;;;;2108280;28;846;-79
2021/07/23 02:37:26;;;;;;;;;;;;;;;;;;2107960;28;1189;-77
2021/07/23 02:38:28;;;;;;;;;;;;;;;;;;2108013;28;1367;-74
2021/07/23 02:39:34;;;;;;;;;;;;;;;;;;2107989;28;1482;-75
2021/07/23 02:40:38;;;;;;;;;;;;;;;;;;2108045;28;857;-76
2021/07/23 02:41:40;;;;;;;;;;;;;;;;;;2107924;28;1324;-78
2021/07/23 02:42:42;;;;;;;;;;;;;;;;;;2108073;28;1234;-75
2021/07/23 02:43:45;;;;;;;;;;;;;;;;;;2107949;28;1186;-75
2021/07/23 02:44:47;;;;;;;;;;;;;;;;;;2108134;28;837;-77
2021/07/23 02:45:48;;;;;;;;;;;;;;;;;;2108052;28;1240;-75
2021/07/23 02:46:50;;;;;;;;;;;;;;;;;;2107976;28;1336;-77
2021/07/23 02:47:53;;;;;;;;;;;;;;;;;;2108122;28;852;-78
2021/07/23 02:48:56;;;;;;;;;;;;;;;;;;2108522;28;1245;-78
2021/07/23 02:50:00;;;;;;;;;;;;;;;;;;2108142;28;1206;-76
2021/07/23 02:51:11;;;;;;;;;;;;;;;;;;2108010;28;1914;-75
2021/07/23 02:52:13;;;;;;;;;;;;;;;;;;2107984;28;1325;-77
2021/07/23 02:53:19;;;;;;;;;;;;;;;;;;2107921;28;1215;-78
2021/07/23 02:54:22;;;;;;;;;;;;;;;;;;2107866;28;1404;-79
2021/07/23 02:55:24;;;;;;;;;;;;;;;;;;2108008;28;885;-79
2021/07/23 02:56:28;;;;;;;;;;;;;;;;;;2108621;28;828;-77
2021/07/23 02:57:35;;;;;;;;;;;;;;;;;;2107905;28;1337;-73
2021/07/23 02:58:37;;;;;;;;;;;;;;;;;;2107319;28;1446;-74
2021/07/23 02:59:39;;;;;;;;;;;;;;;;;;2108059;28;1225;-74
2021/07/23 03:00:43;;;;;;;;;;;;;;;;;;2107817;28;1387;-73
2021/07/23 03:01:45;;;;;;;;;;;;;;;;;;2107917;28;1372;-75
2021/07/23 03:02:49;;;;;;;;;;;;;;;;;;2108070;28;1556;-74
2021/07/23 03:03:51;;;;;;;;;;;;;;;;;;2107862;28;1235;-74
2021/07/23 03:04:52;;;;;;;;;;;;;;;;;;2108191;28;949;-74
2021/07/23 03:05:54;;;;;;;;;;;;;;;;;;2107889;28;822;-74
2021/07/23 03:06:59;;;;;;;;;;;;;;;;;;2108749;28;968;-74
2021/07/23 03:08:01;;;;;;;;;;;;;;;;;;2108025;28;1503;-74
2021/07/23 03:09:10;;;;;;;;;;;;;;;;;;2107899;28;985;-74
2021/07/23 03:10:12;;;;;;;;;;;;;;;;;;2107841;28;883;-73
2021/07/23 03:11:15;;;;;;;;;;;;;;;;;;2107780;28;1965;-74
2021/07/23 03:12:28;;;;;;;;;;;;;;;;;;2117830;27;1425;-74
2021/07/23 03:13:31;;;;;;;;;;;;;;;;;;2115953;28;1197;-75
2021/07/23 03:14:34;;;;;;;;;;;;;;;;;;2107705;28;1466;-73
2021/07/23 03:15:40;;;;;;;;;;;;;;;;;;2100281;28;1121;-72
2021/07/23 03:16:43;;;;;;;;;;;;;;;;;;2107710;28;1387;-74
2021/07/23 03:17:44;;;;;;;;;;;;;;;;;;2107829;28;1271;-73
2021/07/23 03:18:46;;;;;;;;;;;;;;;;;;2099357;28;1496;-74
2021/07/23 03:19:49;;;;;;;;;;;;;;;;;;2107693;28;1255;-73
2021/07/23 03:20:53;;;;;;;;;;;;;;;;;;2107669;28;1330;-74
2021/07/23 03:21:54;;;;;;;;;;;;;;;;;;2107745;28;802;-74
2021/07/23 03:22:57;;;;;;;;;;;;;;;;;;2107692;28;1357;-73
2021/07/23 03:24:12;;;;;;;;;;;;;;;;;;2107938;28;1385;-74
2021/07/23 03:25:14;;;;;;;;;;;;;;;;;;2107756;28;1261;-74
2021/07/23 03:26:39;;;;;;;;;;;;;;;;;;2102404;28;1158;-76
2021/07/23 03:27:43;;;;;;;;;;;;;;;;;;2107662;28;1273;-73
2021/07/23 03:28:48;;;;;;;;;;;;;;;;;;2107633;28;1293;-73
2021/07/23 03:29:52;;;;;;;;;;;;;;;;;;2107916;28;838;-74
2021/07/23 03:30:54;;;;;;;;;;;;;;;;;;2107632;28;826;-72
2021/07/23 03:31:57;;;;;;;;;;;;;;;;;;2107579;28;1914;-73
2021/07/23 03:33:05;;;;;;;;;;;;;;;;;;2107670;28;1305;-72
2021/07/23 03:34:08;;;;;;;;;;;;;;;;;;2107689;28;1451;-73
2021/07/23 03:35:29;;;;;;;;;;;;;;;;;;2107625;28;1440;-74
2021/07/23 03:36:34;;;;;;;;;;;;;;;;;;2107564;28;1107;-75
2021/07/23 03:37:35;;;;;;;;;;;;;;;;;;2107590;28;1332;-73
2021/07/23 03:38:45;;;;;;;;;;;;;;;;;;2107621;28;1289;-74
2021/07/23 03:39:46;;;;;;;;;;;;;;;;;;2107590;28;960;-73
2021/07/23 03:40:52;;;;;;;;;;;;;;;;;;2107580;28;1297;-74
2021/07/23 03:41:53;;;;;;;;;;;;;;;;;;2107712;28;1557;-74
2021/07/23 03:42:55;;;;;;;;;;;;;;;;;;2107656;28;906;-74
2021/07/23 03:44:02;;;;;;;;;;;;;;;;;;2107534;28;1346;-73
2021/07/23 03:45:08;;;;;;;;;;;;;;;;;;2107871;28;886;-73
2021/07/23 03:46:09;;;;;;;;;;;;;;;;;;2107519;28;1316;-73
2021/07/23 03:47:18;;;;;;;;;;;;;;;;;;2107729;28;1671;-73
2021/07/23 03:48:19;;;;;;;;;;;;;;;;;;2107347;28;1429;-75
2021/07/23 03:49:23;;;;;;;;;;;;;;;;;;2107202;28;1392;-74
2021/07/23 03:50:24;;;;;;;;;;;;;;;;;;2115932;28;1303;-73
2021/07/23 03:51:32;;;;;;;;;;;;;;;;;;2116065;28;1979;-73
2021/07/23 03:52:33;;;;;;;;;;;;;;;;;;2115939;28;1659;-74
2021/07/23 03:53:54;;;;;;;;;;;;;;;;;;2116356;28;605;-74
2021/07/23 03:54:58;;;;;;;;;;;;;;;;;;2116497;28;1315;-73
2021/07/23 03:56:04;;;;;;;;;;;;;;;;;;2115986;28;1373;-74
2021/07/23 03:57:13;;;;;;;;;;;;;;;;;;2115965;28;1273;-74
2021/07/23 03:58:16;;;;;;;;;;;;;;;;;;2107528;28;1261;-75
2021/07/23 03:59:19;;;;;;;;;;;;;;;;;;2113019;28;1362;-74
2021/07/23 04:00:28;;;;;;;;;;;;;;;;;;2115089;28;1598;-75
2021/07/23 04:01:31;;;;;;;;;;;;;;;;;;2107003;28;929;-73
2021/07/23 04:02:35;;;;;;;;;;;;;;;;;;2099763;28;888;-74
2021/07/23 04:03:36;;;;;;;;;;;;;;;;;;2099129;28;1580;-74
2021/07/23 04:04:38;;;;;;;;;;;;;;;;;;2098985;28;842;-73
2021/07/23 04:05:39;;;;;;;;;;;;;;;;;;2115220;28;1328;-73
2021/07/23 04:06:42;;;;;;;;;;;;;;;;;;2107387;28;1303;-73
2021/07/23 04:07:43;;;;;;;;;;;;;;;;;;2099194;28;968;-73
2021/07/23 04:08:46;;;;;;;;;;;;;;;;;;2103465;28;1203;-73
2021/07/23 04:09:54;;;;;;;;;;;;;;;;;;2105554;28;1144;-74
2021/07/23 04:10:56;;;;;;;;;;;;;;;;;;2107843;28;1353;-73
2021/07/23 04:12:02;;;;;;;;;;;;;;;;;;2100853;28;1910;-74
2021/07/23 04:13:09;;;;;;;;;;;;;;;;;;2106040;28;1449;-72
2021/07/23 04:14:16;;;;;;;;;;;;;;;;;;2108723;28;1369;-74
2021/07/23 04:15:19;;;;;;;;;;;;;;;;;;2108653;28;1424;-80
2021/07/23 04:16:44;;;;;;;;;;;;;;;;;;2108317;28;1357;-73
2021/07/23 04:17:46;;;;;;;;;;;;;;;;;;2108507;28;1373;-73
2021/07/23 04:18:47;;;;;;;;;;;;;;;;;;2105702;28;1424;-73
2021/07/23 04:20:11;;;;;;;;;;;;;;;;;;2098306;28;1515;-73
2021/07/23 04:21:12;;;;;;;;;;;;;;;;;;2103724;28;1369;-73
2021/07/23 04:22:13;;;;;;;;;;;;;;;;;;2104874;28;1470;-74
2021/07/23 04:23:35;;;;;;;;;;;;;;;;;;2106609;28;1191;-76
2021/07/23 04:24:37;;;;;;;;;;;;;;;;;;2108456;28;1409;-75
2021/07/23 04:25:39;;;;;;;;;;;;;;;;;;2113184;28;1384;-75
2021/07/23 04:26:40;;;;;;;;;;;;;;;;;;2121312;27;1481;-76
2021/07/23 04:27:42;;;;;;;;;;;;;;;;;;2121006;27;1521;-74
2021/07/23 04:28:48;;;;;;;;;;;;;;;;;;2111106;28;1516;-75
2021/07/23 04:29:50;;;;;;;;;;;;;;;;;;2113551;28;1435;-74
2021/07/23 04:30:53;;;;;;;;;;;;;;;;;;2119230;27;1612;-76
2021/07/23 04:31:58;;;;;;;;;;;;;;;;;;2116718;28;1909;-74
2021/07/23 04:32:59;;;;;;;;;;;;;;;;;;2108297;28;1463;-76
2021/07/23 04:34:02;;;;;;;;;;;;;;;;;;2102662;28;1613;-74
2021/07/23 04:35:06;;;;;;;;;;;;;;;;;;2111976;28;1506;-74
2021/07/23 04:36:08;;;;;;;;;;;;;;;;;;2112473;28;1534;-74
2021/07/23 04:37:09;;;;;;;;;;;;;;;;;;2103373;28;1474;-76
2021/07/23 04:38:34;;;;;;;;;;;;;;;;;;2094202;28;1376;-74
2021/07/23 04:39:36;;;;;;;;;;;;;;;;;;2109941;28;1392;-73
2021/07/23 04:40:42;;;;;;;;;;;;;;;;;;2111151;28;1505;-74
2021/07/23 04:41:48;;;;;;;;;;;;;;;;;;2101069;28;1274;-75
2021/07/23 04:42:50;;;;;;;;;;;;;;;;;;2109125;28;838;-74
2021/07/23 04:43:51;;;;;;;;;;;;;;;;;;2108448;28;1379;-74
2021/07/23 04:44:53;;;;;;;;;;;;;;;;;;2112502;28;1486;-74
2021/07/23 04:45:56;;;;;;;;;;;;;;;;;;2112684;28;1447;-74
2021/07/23 04:47:00;;;;;;;;;;;;;;;;;;2113283;28;1419;-74
2021/07/23 04:48:02;;;;;;;;;;;;;;;;;;2108429;28;1310;-73
2021/07/23 04:49:06;;;;;;;;;;;;;;;;;;2105098;28;1654;-73
2021/07/23 04:50:10;;;;;;;;;;;;;;;;;;2104316;28;1455;-74
2021/07/23 04:51:34;;;;;;;;;;;;;;;;;;2116757;28;1572;-74
2021/07/23 04:52:57;;;;;;;;;;;;;;;;;;2116989;28;1027;-74
2021/07/23 04:54:28;;;;;;;;;;;;;;;;;;2117073;28;964;-74
2021/07/23 04:55:51;;;;;;;;;;;;;;;;;;2117331;28;649;-74
2021/07/23 04:56:58;;;;;;;;;;;;;;;;;;2117426;28;818;-74
2021/07/23 04:58:01;;;;;;;;;;;;;;;;;;2117399;28;860;-74
2021/07/23 04:59:02;;;;;;;;;;;;;;;;;;2117324;28;814;-74
2021/07/23 05:00:03;;;;;;;;;;;;;;;;;;2117389;28;929;-74
2021/07/23 05:01:07;;;;;;;;;;;;;;;;;;2117440;28;898;-73
2021/07/23 05:02:07;;;;;;;;;;;;;;;;;;2117357;28;945;-74
2021/07/23 05:03:09;;;;;;;;;;;;;;;;;;2117318;28;782;-73
2021/07/23 05:04:10;;;;;;;;;;;;;;;;;;2117363;28;779;-74
2021/07/23 05:05:13;;;;;;;;;;;;;;;;;;2116627;28;1095;-74
2021/07/23 05:06:14;;;;;;;;;;;;;;;;;;2108579;28;1771;-74
2021/07/23 05:07:15;;;;;;;;;;;;;;;;;;2117123;28;866;-73
2021/07/23 05:08:16;;;;;;;;;;;;;;;;;;2117121;28;1237;-74
2021/07/23 05:09:18;;;;;;;;;;;;;;;;;;2108785;28;1202;-74
2021/07/23 05:10:19;;;;;;;;;;;;;;;;;;2117219;28;904;-74
2021/07/23 05:11:21;;;;;;;;;;;;;;;;;;2117921;28;818;-74
2021/07/23 05:12:28;;;;;;;;;;;;;;;;;;2117121;28;1963;-74
2021/07/23 05:13:30;;;;;;;;;;;;;;;;;;2117233;28;865;-74
2021/07/23 05:14:31;;;;;;;;;;;;;;;;;;2117104;28;1327;-73
2021/07/23 05:15:33;;;;;;;;;;;;;;;;;;2117165;28;846;-73
2021/07/23 05:16:35;;;;;;;;;;;;;;;;;;2117895;28;901;-74
2021/07/23 05:17:38;;;;;;;;;;;;;;;;;;2117879;28;818;-74
2021/07/23 05:18:39;;;;;;;;;;;;;;;;;;2117707;28;1119;-74
2021/07/23 05:19:41;;;;;;;;;;;;;;;;;;2117027;28;1419;-74
2021/07/23 05:20:42;;;;;;;;;;;;;;;;;;2117145;28;826;-74
2021/07/23 05:21:45;;;;;;;;;;;;;;;;;;2117351;28;846;-74
2021/07/23 05:22:46;;;;;;;;;;;;;;;;;;2117060;28;1297;-74
2021/07/23 05:23:47;;;;;;;;;;;;;;;;;;2117314;28;1084;-74
2021/07/23 05:24:48;;;;;;;;;;;;;;;;;;2117868;28;779;-74
2021/07/23 05:25:50;;;;;;;;;;;;;;;;;;2117036;28;1181;-74
2021/07/23 05:26:51;;;;;;;;;;;;;;;;;;2117263;28;960;-74
2021/07/23 05:27:53;;;;;;;;;;;;;;;;;;2117679;28;859;-74
2021/07/23 05:28:54;;;;;;;;;;;;;;;;;;2117810;28;960;-73
2021/07/23 05:29:55;;;;;;;;;;;;;;;;;;2117794;28;897;-74
2021/07/23 05:30:56;;;;;;;;;;;;;;;;;;2117769;27;759;-74
2021/07/23 05:31:59;;;;;;;;;;;;;;;;;;2117829;28;1960;-74
2021/07/23 05:33:00;;;;;;;;;;;;;;;;;;2117804;28;852;-74
2021/07/23 05:34:02;;;;;;;;;;;;;;;;;;2118026;28;869;-74
2021/07/23 05:35:03;;;;;;;;;;;;;;;;;;2117718;28;787;-74
2021/07/23 05:36:05;;;;;;;;;;;;;;;;;;2116993;28;1217;-74
2021/07/23 05:37:06;;;;;;;;;;;;;;;;;;2117117;28;940;-74
2021/07/23 05:38:13;;;;;;;;;;;;;;;;;;2117697;28;932;-74
2021/07/23 05:39:14;;;;;;;;;;;;;;;;;;2117646;28;814;-74
2021/07/23 05:40:16;;;;;;;;;;;;;;;;;;2117777;28;877;-74
2021/07/23 05:41:20;;;;;;;;;;;;;;;;;;2117749;28;843;-74
2021/07/23 05:42:22;;;;;;;;;;;;;;;;;;2117576;28;878;-74
2021/07/23 05:43:23;;;;;;;;;;;;;;;;;;2117543;28;866;-74
2021/07/23 05:44:24;;;;;;;;;;;;;;;;;;2117766;28;853;-74
2021/07/23 05:45:25;;;;;;;;;;;;;;;;;;2117572;28;864;-74
2021/07/23 05:46:27;;;;;;;;;;;;;;;;;;2117636;28;862;-74
2021/07/23 05:47:30;;;;;;;;;;;;;;;;;;2117551;28;891;-74
2021/07/23 05:48:31;;;;;;;;;;;;;;;;;;2117291;28;1528;-74
2021/07/23 05:49:32;;;;;;;;;;;;;;;;;;2117526;28;794;-74
2021/07/23 05:50:34;;;;;;;;;;;;;;;;;;2117708;28;786;-74
2021/07/23 05:51:35;;;;;;;;;;;;;;;;;;2117461;28;822;-74
2021/07/23 05:52:37;;;;;;;;;;;;;;;;;;2117433;28;1979;-73
2021/07/23 05:53:38;;;;;;;;;;;;;;;;;;2117500;28;899;-74
2021/07/23 05:54:40;;;;;;;;;;;;;;;;;;2117541;28;945;-74
2021/07/23 05:55:40;;;;;;;;;;;;;;;;;;2117557;28;873;-74
2021/07/23 05:56:42;;;;;;;;;;;;;;;;;;2117457;28;917;-74
2021/07/23 05:57:43;;;;;;;;;;;;;;;;;;2117593;28;917;-74
2021/07/23 05:58:44;;;;;;;;;;;;;;;;;;2117409;28;865;-75
2021/07/23 05:59:45;;;;;;;;;;;;;;;;;;2117476;28;898;-74
2021/07/23 06:00:47;;;;;;;;;;;;;;;;;;2117541;28;1081;-75
2021/07/23 06:01:49;;;;;;;;;;;;;;;;;;2117430;28;898;-75
2021/07/23 06:02:51;;;;;;;;;;;;;;;;;;2117442;28;897;-74
2021/07/23 06:03:54;;;;;;;;;;;;;;;;;;2117508;28;1329;-74
2021/07/23 06:04:54;;;;;;;;;;;;;;;;;;2117374;28;872;-74
2021/07/23 06:05:56;;;;;;;;;;;;;;;;;;2117655;28;884;-74
2021/07/23 06:06:57;;;;;;;;;;;;;;;;;;2117613;28;881;-74
2021/07/23 06:07:59;;;;;;;;;;;;;;;;;;2116744;28;1367;-74
2021/07/23 06:09:01;;;;;;;;;;;;;;;;;;2116770;28;990;-74
2021/07/23 06:10:02;;;;;;;;;;;;;;;;;;2117587;28;857;-74
2021/07/23 06:11:03;;;;;;;;;;;;;;;;;;2116679;28;1199;-74
2021/07/23 06:12:06;;;;;;;;;;;;;;;;;;2116876;28;991;-74
2021/07/23 06:13:07;;;;;;;;;;;;;;;;;;2117507;28;1910;-74
2021/07/23 06:14:09;;;;;;;;;;;;;;;;;;2117358;28;806;-74
2021/07/23 06:15:10;;;;;;;;;;;;;;;;;;2117317;28;826;-74
2021/07/23 06:16:13;;;;;;;;;;;;;;;;;;2117400;28;937;-73
2021/07/23 06:17:13;;;;;;;;;;;;;;;;;;2117256;28;791;-74
2021/07/23 06:18:16;;;;;;;;;;;;;;;;;;2117443;28;798;-75
2021/07/23 06:19:18;;;;;;;;;;;;;;;;;;2117325;28;940;-73
2021/07/23 06:20:19;;;;;;;;;;;;;;;;;;2117408;28;802;-74
2021/07/23 06:21:21;;;;;;;;;;;;;;;;;;2117421;28;832;-75
2021/07/23 06:22:23;;;;;;;;;;;;;;;;;;2117569;28;847;-74
2021/07/23 06:23:24;;;;;;;;;;;;;;;;;;2117261;28;846;-74
2021/07/23 06:24:25;;;;;;;;;;;;;;;;;;2117757;28;877;-75
2021/07/23 06:25:26;;;;;;;;;;;;;;;;;;2117388;28;885;-75
2021/07/23 06:26:28;;;;;;;;;;;;;;;;;;2117304;28;890;-75
2021/07/23 06:27:29;;;;;;;;;;;;;;;;;;2117190;28;957;-75
2021/07/23 06:28:31;;;;;;;;;;;;;;;;;;2117262;28;857;-75
2021/07/23 06:29:32;;;;;;;;;;;;;;;;;;2117115;28;853;-74
2021/07/23 06:30:33;;;;;;;;;;;;;;;;;;2117319;28;895;-74
2021/07/23 06:31:35;;;;;;;;;;;;;;;;;;2116586;28;1334;-74
2021/07/23 06:32:37;;;;;;;;;;;;;;;;;;2116498;28;1980;-74
2021/07/23 06:33:39;;;;;;;;;;;;;;;;;;2116758;28;869;-74
2021/07/23 06:34:41;;;;;;;;;;;;;;;;;;2117346;28;837;-75
2021/07/23 06:35:41;;;;;;;;;;;;;;;;;;2117096;28;839;-75
2021/07/23 06:36:43;;;;;;;;;;;;;;;;;;2117326;28;930;-74
2021/07/23 06:37:44;;;;;;;;;;;;;;;;;;2116446;28;1292;-74
2021/07/23 06:38:45;;;;;;;;;;;;;;;;;;2116528;28;830;-74
2021/07/23 06:39:46;;;;;;;;;;;;;;;;;;2117150;28;855;-74
2021/07/23 06:40:48;;;;;;;;;;;;;;;;;;2117285;28;806;-74
2021/07/23 06:41:48;;;;;;;;;;;;;;;;;;2117149;28;863;-74
2021/07/23 06:42:50;;;;;;;;;;;;;;;;;;2117084;28;1005;-74
2021/07/23 06:43:51;;;;;;;;;;;;;;;;;;2117095;28;905;-74
2021/07/23 06:44:53;;;;;;;;;;;;;;;;;;2116347;28;1225;-74
2021/07/23 06:45:54;;;;;;;;;;;;;;;;;;2116575;28;917;-75
2021/07/23 06:46:56;;;;;;;;;;;;;;;;;;2116379;28;1336;-75
2021/07/23 06:47:57;;;;;;;;;;;;;;;;;;2107990;28;1249;-74
2021/07/23 06:49:00;;;;;;;;;;;;;;;;;;2116268;28;1435;-74
2021/07/23 06:50:01;;;;;;;;;;;;;;;;;;2117071;28;827;-74
2021/07/23 06:51:03;;;;;;;;;;;;;;;;;;2116979;28;960;-74
2021/07/23 06:52:04;;;;;;;;;;;;;;;;;;2117073;28;901;-75
2021/07/23 06:53:06;;;;;;;;;;;;;;;;;;2116965;28;1971;-74
2021/07/23 06:54:07;;;;;;;;;;;;;;;;;;2116339;28;1174;-74
2021/07/23 06:55:10;;;;;;;;;;;;;;;;;;2116420;28;901;-75
2021/07/23 06:56:10;;;;;;;;;;;;;;;;;;2116990;28;885;-74
2021/07/23 06:57:12;;;;;;;;;;;;;;;;;;2117078;28;870;-75
2021/07/23 06:58:13;;;;;;;;;;;;;;;;;;2117032;28;893;-74
2021/07/23 06:59:14;;;;;;;;;;;;;;;;;;2116236;28;1245;-74
2021/07/23 07:00:15;;;;;;;;;;;;;;;;;;2116511;28;892;-74
2021/07/23 07:01:17;;;;;;;;;;;;;;;;;;2117043;28;882;-74
2021/07/23 07:02:18;;;;;;;;;;;;;;;;;;2117049;27;894;-74
2021/07/23 07:03:22;;;;;;;;;;;;;;;;;;2117100;28;762;-74
2021/07/23 07:04:25;;;;;;;;;;;;;;;;;;2117008;28;848;-75
2021/07/23 07:05:26;;;;;;;;;;;;;;;;;;2116893;28;976;-74
2021/07/23 07:06:28;;;;;;;;;;;;;;;;;;2116924;28;916;-75
2021/07/23 07:07:29;;;;;;;;;;;;;;;;;;2116962;28;969;-74
2021/07/23 07:08:31;;;;;;;;;;;;;;;;;;2117005;28;873;-74
2021/07/23 07:09:32;;;;;;;;;;;;;;;;;;2116161;28;1297;-73
2021/07/23 07:10:34;;;;;;;;;;;;;;;;;;2116218;28;786;-73
2021/07/23 07:11:34;;;;;;;;;;;;;;;;;;2116269;28;1316;-74
2021/07/23 07:12:36;;;;;;;;;;;;;;;;;;2116278;28;1918;-74
2021/07/23 07:13:37;;;;;;;;;;;;;;;;;;2116167;28;1623;-74
2021/07/23 07:14:39;;;;;;;;;;;;;;;;;;2116554;28;1025;-74
2021/07/23 07:15:40;;;;;;;;;;;;;;;;;;2117007;28;779;-74
2021/07/23 07:16:41;;;;;;;;;;;;;;;;;;2116911;28;865;-74
2021/07/23 07:17:42;;;;;;;;;;;;;;;;;;2116950;28;881;-74
2021/07/23 07:18:44;;;;;;;;;;;;;;;;;;2116822;28;802;-74
2021/07/23 07:19:46;;;;;;;;;;;;;;;;;;2116833;28;952;-74
2021/07/23 07:20:47;;;;;;;;;;;;;;;;;;2116813;28;1067;-74
2021/07/23 07:21:48;;;;;;;;;;;;;;;;;;2116887;28;933;-74
2021/07/23 07:22:50;;;;;;;;;;;;;;;;;;2116942;28;853;-75
2021/07/23 07:23:51;;;;;;;;;;;;;;;;;;2116742;28;868;-74